createdAt,value
2022-09-27T00:03:38.148Z,3.05
2022-09-27T00:08:41.109Z,2.72
2022-09-27T00:13:45.406Z,3.20
2022-09-27T00:18:48.288Z,2.58
2022-09-27T00:23:51.209Z,2.50
2022-09-27T00:28:55.490Z,2.25
2022-09-27T00:34:00.095Z,4.22
2022-09-27T00:39:03.355Z,3.22
2022-09-27T00:45:00.761Z,2.50
2022-09-27T00:50:09.871Z,3.72
2022-09-27T00:55:17.258Z,3.35
2022-09-27T01:00:23.067Z,3.00
2022-09-27T01:05:29.437Z,3.15
2022-09-27T01:10:38.478Z,2.63
2022-09-27T01:15:51.062Z,2.58
2022-09-27T01:21:27.491Z,2.03
2022-09-27T01:26:48.524Z,3.28
2022-09-27T01:32:03.874Z,2.35
2022-09-27T01:37:16.813Z,2.80
2022-09-27T01:42:24.863Z,2.25
2022-09-27T01:47:38.399Z,2.47
2022-09-27T01:53:16.122Z,2.55
2022-09-27T01:58:47.189Z,2.50
2022-09-27T02:03:53.446Z,2.03
2022-09-27T02:09:17.254Z,2.20
2022-09-27T02:14:47.583Z,2.72
2022-09-27T02:20:03.681Z,2.22
2022-09-27T02:25:19.474Z,2.20
2022-09-27T02:30:22.670Z,1.45
2022-09-27T02:35:35.733Z,2.30
2022-09-27T02:40:45.505Z,2.95
2022-09-27T02:45:59.847Z,2.42
2022-09-27T02:51:34.046Z,2.67
2022-09-27T02:56:44.892Z,2.60
2022-09-27T03:02:14.270Z,1.92
2022-09-27T03:07:32.584Z,2.35
2022-09-27T03:12:36.114Z,2.35
2022-09-27T03:17:39.219Z,2.22
2022-09-27T03:23:01.980Z,2.67
2022-09-27T03:28:06.009Z,2.20
2022-09-27T03:33:10.278Z,2.70
2022-09-27T03:38:31.361Z,2.20
2022-09-27T03:43:35.984Z,3.90
2022-09-27T03:48:41.908Z,3.53
2022-09-27T03:53:46.775Z,4.03
2022-09-27T03:58:49.843Z,3.40
2022-09-27T04:03:53.950Z,3.67
2022-09-27T04:09:10.161Z,3.65
2022-09-27T04:14:31.533Z,5.70
2022-09-27T04:19:57.565Z,5.78
2022-09-27T04:25:02.723Z,7.82
2022-09-27T04:30:13.842Z,6.43
2022-09-27T04:36:06.374Z,6.82
2022-09-27T04:41:12.712Z,6.72
2022-09-27T04:46:17.355Z,7.00
2022-09-27T04:51:20.408Z,6.10
2022-09-27T04:56:25.607Z,7.25
2022-09-27T05:01:30.293Z,10.80
2022-09-27T05:06:33.641Z,10.82
2022-09-27T05:11:44.411Z,13.20
2022-09-27T05:16:54.022Z,11.35
2022-09-27T05:22:08.949Z,12.23
2022-09-27T05:27:18.462Z,16.48
2022-09-27T05:32:22.451Z,18.42
2022-09-27T05:37:33.689Z,19.88
2022-09-27T05:42:40.122Z,16.60
2022-09-27T05:47:43.111Z,15.63
2022-09-27T05:52:46.039Z,17.75
2022-09-27T05:58:02.486Z,19.13
2022-09-27T06:03:15.722Z,18.98
2022-09-27T06:08:38.470Z,19.60
2022-09-27T06:13:44.006Z,19.38
2022-09-27T06:18:48.560Z,14.98
2022-09-27T06:23:54.290Z,15.25
2022-09-27T06:29:05.116Z,15.25
2022-09-27T06:34:10.067Z,11.77
2022-09-27T06:39:12.999Z,9.70
2022-09-27T06:44:28.560Z,9.10
2022-09-27T06:49:50.204Z,9.25
2022-09-27T06:54:54.928Z,5.75
2022-09-27T07:00:19.557Z,5.30
2022-09-27T07:05:41.859Z,5.28
2022-09-27T07:10:55.268Z,4.03
2022-09-27T07:16:00.587Z,3.28
2022-09-27T07:21:03.722Z,1.90
2022-09-27T07:26:10.395Z,2.28
2022-09-27T07:31:14.745Z,2.03
2022-09-27T07:36:17.786Z,1.55
2022-09-27T07:41:22.583Z,3.25
2022-09-27T07:46:27.051Z,3.05
2022-09-27T07:51:53.173Z,2.75
2022-09-27T07:57:25.227Z,5.03
2022-09-27T08:02:32.891Z,3.42
2022-09-27T08:07:36.462Z,3.15
2022-09-27T08:12:40.168Z,2.70
2022-09-27T08:17:44.644Z,3.35
2022-09-27T08:23:04.106Z,3.30
2022-09-27T08:28:11.520Z,3.53
2022-09-27T08:33:20.446Z,2.50
2022-09-27T08:38:23.828Z,4.55
2022-09-27T08:43:40.420Z,3.10
2022-09-27T08:48:50.238Z,4.43
2022-09-27T08:53:57.319Z,2.75
2022-09-27T08:59:12.913Z,3.28
2022-09-27T09:04:25.753Z,2.88
2022-09-27T09:09:38.997Z,2.08
2022-09-27T09:15:13.775Z,3.25
2022-09-27T09:20:31.059Z,3.10
2022-09-27T09:25:46.618Z,1.92
2022-09-27T09:31:01.914Z,1.88
2022-09-27T09:36:14.048Z,2.63
2022-09-27T09:41:21.603Z,2.65
2022-09-27T09:51:41.029Z,1.83
2022-09-27T09:56:49.923Z,1.65
2022-09-27T10:01:55.936Z,2.75
2022-09-27T10:07:02.349Z,2.03
2022-09-27T10:12:11.043Z,3.08
2022-09-27T10:17:18.061Z,1.92
2022-09-27T10:22:29.093Z,2.25
2022-09-27T10:27:42.005Z,1.50
2022-09-27T10:32:45.804Z,2.58
2022-09-27T10:38:23.793Z,1.98
2022-09-27T10:43:33.245Z,1.17
2022-09-27T10:49:20.264Z,0.95
2022-09-27T10:54:28.690Z,2.17
2022-09-27T10:59:35.289Z,1.35
2022-09-27T11:04:40.376Z,1.25
2022-09-27T11:09:52.752Z,1.98
2022-09-27T11:15:02.453Z,1.85
2022-09-27T11:20:20.159Z,1.85
2022-09-27T11:25:33.879Z,1.60
2022-09-27T11:30:47.467Z,1.50
2022-09-27T11:36:10.441Z,2.13
2022-09-27T11:41:28.797Z,2.53
2022-09-27T11:46:41.356Z,2.10
2022-09-27T11:52:14.925Z,1.67
2022-09-27T11:57:26.456Z,2.10
2022-09-27T12:02:49.650Z,2.42
2022-09-27T12:08:13.833Z,1.23
2022-09-27T12:13:34.244Z,1.75
2022-09-27T12:18:39.882Z,1.30
2022-09-27T12:23:58.764Z,4.20
2022-09-27T12:29:16.203Z,1.30
2022-09-27T12:34:23.695Z,2.15
2022-09-27T12:39:35.140Z,2.80
2022-09-27T12:44:54.395Z,3.75
2022-09-27T12:50:05.346Z,2.22
2022-09-27T12:55:30.415Z,2.88
2022-09-27T13:00:42.457Z,3.13
2022-09-27T13:06:14.259Z,0.60
2022-09-27T13:11:21.961Z,0.77
2022-09-27T13:16:26.817Z,0.57
2022-09-27T13:21:58.342Z,1.92
2022-09-27T13:27:40.923Z,1.83
2022-09-27T13:33:23.592Z,0.60
2022-09-27T13:38:34.427Z,0.75
2022-09-27T13:43:58.819Z,2.17
2022-09-27T13:49:20.690Z,4.55
2022-09-27T13:54:52.559Z,0.98
2022-09-27T14:00:04.087Z,3.05
2022-09-27T14:07:20.985Z,5.10
2022-09-27T14:12:14.083Z,5.35
2022-09-27T14:22:24.828Z,2.35
2022-09-27T14:27:31.788Z,2.00
2022-09-27T14:32:48.782Z,2.38
2022-09-27T14:38:07.553Z,1.85
2022-09-27T14:43:22.943Z,3.45
2022-09-27T14:48:29.344Z,3.92
2022-09-27T14:53:35.820Z,5.20
2022-09-27T14:58:54.038Z,2.97
2022-09-27T15:03:58.325Z,2.60
2022-09-27T15:09:03.075Z,3.17
2022-09-27T15:14:06.231Z,2.42
2022-09-27T15:19:17.313Z,3.63
2022-09-27T15:24:45.010Z,2.72
2022-09-27T15:29:51.594Z,2.83
2022-09-27T15:34:56.619Z,2.78
2022-09-27T15:40:29.953Z,2.28
2022-09-27T15:50:51.899Z,4.50
2022-09-27T15:55:56.039Z,2.75
2022-09-27T16:01:02.402Z,2.45
2022-09-27T16:06:05.819Z,4.72
2022-09-27T16:11:15.820Z,4.25
2022-09-27T16:16:23.687Z,2.25
2022-09-27T16:21:26.699Z,4.70
2022-09-27T16:26:34.148Z,3.15
2022-09-27T16:31:37.052Z,3.13
2022-09-27T16:36:40.633Z,3.08
2022-09-27T16:41:44.716Z,4.05
2022-09-27T16:46:47.569Z,4.30
2022-09-27T16:52:02.429Z,3.13
2022-09-27T16:57:06.621Z,1.98
2022-09-27T17:02:10.511Z,4.18
2022-09-27T17:07:13.397Z,3.58
2022-09-27T17:12:17.631Z,4.35
2022-09-27T17:17:20.609Z,5.57
2022-09-27T17:22:23.494Z,3.58
2022-09-27T17:27:29.195Z,6.05
2022-09-27T17:32:31.957Z,4.68
2022-09-27T17:37:34.919Z,3.38
2022-09-27T17:42:39.307Z,3.67
2022-09-27T17:47:59.729Z,2.80
2022-09-27T17:53:02.709Z,2.55
2022-09-27T17:58:32.446Z,3.22
2022-09-27T18:03:35.662Z,3.47
2022-09-27T18:08:39.199Z,4.85
2022-09-27T18:13:44.868Z,3.33
2022-09-27T18:18:49.550Z,3.10
2022-09-27T18:23:53.120Z,4.10
2022-09-27T18:29:01.674Z,5.63
2022-09-27T18:34:05.202Z,3.97
2022-09-27T18:39:09.673Z,4.15
2022-09-27T18:44:15.223Z,4.47
2022-09-27T18:49:21.162Z,7.15
2022-09-27T18:54:27.680Z,6.03
2022-09-27T18:59:31.788Z,4.60
2022-09-27T19:04:34.636Z,4.32
2022-09-27T19:09:37.428Z,4.13
2022-09-27T19:14:41.564Z,5.85
2022-09-27T19:19:44.535Z,4.45
2022-09-27T19:24:47.440Z,5.78
2022-09-27T19:29:51.569Z,4.13
2022-09-27T19:34:54.367Z,5.97
2022-09-27T19:39:57.126Z,4.47
2022-09-27T19:45:01.384Z,7.32
2022-09-27T19:50:04.688Z,9.80
2022-09-27T19:55:08.696Z,6.10
2022-09-27T20:00:13.494Z,7.88
2022-09-27T20:05:16.499Z,22.00
2022-09-27T20:10:19.294Z,6.53
2022-09-27T20:15:25.166Z,7.38
2022-09-27T20:20:28.058Z,8.75
2022-09-27T20:25:30.961Z,10.02
2022-09-27T20:30:35.209Z,6.38
2022-09-27T20:35:38.101Z,5.65
2022-09-27T20:40:41.082Z,13.52
2022-09-27T20:45:57.527Z,5.88
2022-09-27T20:51:04.656Z,7.03
2022-09-27T20:56:17.132Z,6.60
2022-09-27T21:01:22.656Z,6.45
2022-09-27T21:06:27.118Z,5.95
2022-09-27T21:11:29.956Z,5.28
2022-09-27T21:16:36.310Z,7.57
2022-09-27T21:21:39.101Z,5.97
2022-09-27T21:26:41.784Z,6.07
2022-09-27T21:31:45.934Z,5.15
2022-09-27T21:36:48.671Z,8.25
2022-09-27T21:41:51.849Z,7.93
2022-09-27T21:46:56.092Z,7.32
2022-09-27T21:51:58.880Z,5.78
2022-09-27T21:57:02.218Z,5.47
2022-09-27T22:02:06.346Z,7.15
2022-09-27T22:07:09.053Z,8.38
2022-09-27T22:12:11.752Z,6.97
2022-09-27T22:17:15.877Z,7.72
2022-09-27T22:22:18.581Z,6.32
2022-09-27T22:27:21.317Z,6.50
2022-09-27T22:32:25.456Z,7.57
2022-09-27T22:37:28.261Z,6.97
2022-09-27T22:42:31.008Z,6.63
2022-09-27T22:47:36.448Z,7.35
2022-09-27T22:52:39.412Z,6.43
2022-09-27T22:57:43.201Z,6.63
2022-09-27T23:02:47.324Z,7.60
2022-09-27T23:07:51.744Z,7.03
2022-09-27T23:12:55.497Z,7.03
2022-09-27T23:17:59.886Z,8.73
2022-09-27T23:23:02.735Z,8.32
2022-09-27T23:28:05.417Z,8.23
2022-09-27T23:33:09.517Z,7.03
2022-09-27T23:38:13.741Z,8.20
2022-09-27T23:43:16.486Z,6.75
2022-09-27T23:48:20.812Z,6.30
2022-09-27T23:53:24.186Z,7.93
2022-09-27T23:58:26.918Z,9.73
